Time;durP1;ratioP1;P1;durP2;ratioP2;P2;SDS_P1;SDS_P2;PMS_P1;PMS_P2;Temp;Humidity;BMP_temperature;BMP_pressure;BME280_temperature;BME280_humidity;BME280_pressure;Samples;Min_cycle;Max_cycle;Signal;HPM_P1;HPM_P2
2023/10/26 00:00:57;;;;;;;;;4.33;4.33;;;;;16.07;100.00;99508.91;4979233;28;66713;-67
2023/10/26 00:03:23;;;;;;;;;3.00;3.00;;;;;16.12;100.00;99514.97;4979412;28;45461;-67
2023/10/26 00:05:48;;;;;;;;;4.00;4.00;;;;;16.20;100.00;99523.59;4979053;28;61232;-67
2023/10/26 00:08:14;;;;;;;;;4.67;4.67;;;;;16.22;100.00;99503.97;4979413;28;45423;-66
2023/10/26 00:10:40;;;;;;;;;3.00;3.00;;;;;16.22;100.00;99495.97;4980181;28;46738;-67
2023/10/26 00:13:05;;;;;;;;;5.00;5.00;;;;;16.24;100.00;99495.91;4962094;28;45511;-66
2023/10/26 00:15:31;;;;;;;;;5.33;3.67;;;;;16.24;100.00;99493.25;4979782;28;45383;-66
2023/10/26 00:17:56;;;;;;;;;4.00;4.00;;;;;16.24;100.00;99493.25;4979254;28;45516;-67
2023/10/26 00:20:21;;;;;;;;;4.00;4.00;;;;;16.26;100.00;99490.56;4978950;28;64582;-67
2023/10/26 00:22:47;;;;;;;;;8.00;5.00;;;;;16.28;100.00;99480.69;4978721;28;61181;-66
2023/10/26 00:25:12;;;;;;;;;5.67;4.00;;;;;16.32;100.00;99483.22;4978939;28;52905;-66
2023/10/26 00:27:40;;;;;;;;;4.67;4.67;;;;;16.33;100.00;99482.28;4979327;28;45466;-66
2023/10/26 00:30:10;;;;;;;;;5.33;5.00;;;;;16.35;100.00;99476.91;4962120;28;47324;-66
2023/10/26 00:32:36;;;;;;;;;6.00;5.00;;;;;16.38;100.00;99479.47;4979626;28;45356;-65
2023/10/26 00:35:01;;;;;;;;;5.33;4.00;;;;;16.35;100.00;99475.13;4962134;28;45594;-66
2023/10/26 00:37:27;;;;;;;;;6.00;6.00;;;;;16.41;100.00;99474.91;4978986;28;45349;-66
2023/10/26 00:39:52;;;;;;;;;4.00;4.00;;;;;16.42;100.00;99476.66;4978163;28;65670;-65
2023/10/26 00:42:17;;;;;;;;;4.00;4.00;;;;;16.44;100.00;99468.59;4978512;28;63527;-66
2023/10/26 00:44:46;;;;;;;;;4.00;4.00;;;;;16.46;100.00;99466.78;4978665;28;56009;-67
2023/10/26 00:47:11;;;;;;;;;5.33;4.00;;;;;16.46;100.00;99466.78;4951475;28;45504;-66
2023/10/26 00:49:38;;;;;;;;;5.00;3.67;;;;;16.46;100.00;99464.97;4961402;28;45478;-68
2023/10/26 00:52:04;;;;;;;;;4.33;4.00;;;;;16.47;100.00;99473.84;4978695;28;45520;-67
2023/10/26 00:54:31;;;;;;;;;5.00;3.33;;;;;16.49;100.00;99469.31;4977773;28;45331;-67
2023/10/26 00:56:57;;;;;;;;;5.33;5.00;;;;;16.50;100.00;99465.72;4961925;28;45353;-66
2023/10/26 00:59:24;;;;;;;;;4.00;4.00;;;;;16.51;100.00;99459.44;4978689;28;53886;-67
2023/10/26 01:01:50;;;;;;;;;8.00;5.00;;;;;16.54;100.00;99464.69;4961929;28;45412;-68
2023/10/26 01:04:16;;;;;;;;;5.33;5.33;;;;;16.50;100.00;99450.59;4977581;28;59033;-66
2023/10/26 01:06:42;;;;;;;;;4.67;4.67;;;;;16.50;100.00;99460.38;4961523;28;45491;-67
2023/10/26 01:09:08;;;;;;;;;4.67;4.67;;;;;16.50;100.00;99450.59;4961168;28;45543;-67
2023/10/26 01:11:34;;;;;;;;;8.00;5.00;;;;;16.50;100.00;99460.38;4978896;28;45471;-65
2023/10/26 01:14:00;;;;;;;;;5.00;5.00;;;;;16.51;100.00;99448.78;4978884;28;45457;-67
2023/10/26 01:16:25;;;;;;;;;5.00;5.00;;;;;16.54;100.00;99455.81;4960683;28;45487;-67
2023/10/26 01:18:50;;;;;;;;;4.00;4.00;;;;;16.54;100.00;99454.03;4978546;28;45313;-66
2023/10/26 01:21:16;;;;;;;;;3.00;3.00;;;;;16.53;100.00;99462.94;4976456;28;62228;-66
2023/10/26 01:23:41;;;;;;;;;6.00;6.00;;;;;16.53;100.00;99457.63;4977747;28;56272;-66
2023/10/26 01:26:07;;;;;;;;;5.00;5.00;;;;;16.49;100.00;99454.19;4977851;28;45535;-67
2023/10/26 01:28:32;;;;;;;;;4.33;3.67;;;;;16.50;100.00;99455.06;4977183;28;63358;-68
2023/10/26 01:30:58;;;;;;;;;4.00;4.00;;;;;16.48;100.00;99449.78;4977416;28;60915;-68
2023/10/26 01:33:23;;;;;;;;;4.00;4.00;;;;;16.46;100.00;99446.31;4978602;28;45447;-66
2023/10/26 01:35:49;;;;;;;;;5.67;3.67;;;;;16.50;100.00;99447.94;4960918;28;45636;-65
2023/10/26 01:38:14;;;;;;;;;5.00;5.00;;;;;16.50;100.00;99444.41;4978025;28;45780;-68
2023/10/26 01:40:40;;;;;;;;;4.00;4.00;;;;;16.48;100.00;99440.94;4977840;28;45562;-67
2023/10/26 01:43:06;;;;;;;;;5.67;4.33;;;;;16.43;100.00;99434.88;4961301;28;45500;-66
2023/10/26 01:45:31;;;;;;;;;6.33;5.67;;;;;16.40;100.00;99433.19;4960572;28;46879;-68
2023/10/26 01:48:00;;;;;;;;;5.33;5.33;;;;;16.36;100.00;99428.91;4970277;28;48418;-66
2023/10/26 01:50:26;;;;;;;;;3.67;3.67;;;;;16.34;100.00;99432.53;4960956;28;46893;-66
2023/10/26 01:52:51;;;;;;;;;5.33;4.33;;;;;16.30;100.00;99430.91;4961286;28;45276;-67
2023/10/26 01:55:16;;;;;;;;;6.33;5.00;;;;;16.26;100.00;99437.28;4977360;28;54892;-66
2023/10/26 01:57:42;;;;;;;;;5.00;5.00;;;;;16.25;100.00;99441.75;4976934;28;66947;-67
2023/10/26 02:00:08;;;;;;;;;5.67;4.67;;;;;16.23;100.00;99430.25;4978631;28;45197;-66
2023/10/26 02:02:34;;;;;;;;;6.67;5.33;;;;;16.24;100.00;99426.66;4977889;28;45443;-66
2023/10/26 02:04:59;;;;;;;;;4.67;4.00;;;;;16.22;100.00;99420.53;4976514;28;45209;-66
2023/10/26 02:07:24;;;;;;;;;5.00;5.00;;;;;16.24;100.00;99416.91;4959399;28;53495;-68
2023/10/26 02:09:50;;;;;;;;;8.00;5.33;;;;;16.29;100.00;99413.19;4977231;28;64998;-66
2023/10/26 02:12:15;;;;;;;;;4.00;4.00;;;;;16.32;100.00;99410.44;4978110;28;45359;-67
2023/10/26 02:14:40;;;;;;;;;7.33;5.67;;;;;16.32;100.00;99405.97;4977962;28;45644;-66
2023/10/26 02:17:06;;;;;;;;;7.67;6.00;;;;;16.28;100.00;99396.34;4976129;28;63703;-66
2023/10/26 02:19:31;;;;;;;;;6.00;6.00;;;;;16.32;100.00;99397.09;4976900;28;59628;-67
2023/10/26 02:21:56;;;;;;;;;6.67;6.00;;;;;16.34;100.00;99398.78;4978140;28;45827;-67
2023/10/26 02:24:22;;;;;;;;;6.33;6.33;;;;;16.36;100.00;99390.75;4976843;28;57438;-66
2023/10/26 02:26:47;;;;;;;;;9.67;7.00;;;;;16.33;100.00;99405.03;4977826;28;46527;-66
2023/10/26 02:29:13;;;;;;;;;4.33;4.33;;;;;16.35;100.00;99400.53;4976804;28;63108;-66
2023/10/26 02:31:38;;;;;;;;;6.33;5.67;;;;;16.37;100.00;99389.81;4977533;28;45452;-65
2023/10/26 02:34:03;;;;;;;;;6.00;6.00;;;;;16.37;100.00;99401.34;4960032;28;47974;-65
2023/10/26 02:36:30;;;;;;;;;7.00;7.00;;;;;16.36;100.00;99388.97;4976625;28;64193;-68
2023/10/26 02:38:55;;;;;;;;;5.00;5.00;;;;;16.40;100.00;99384.38;4977142;28;45448;-66
2023/10/26 02:41:20;;;;;;;;;8.67;6.00;;;;;16.39;100.00;99371.97;4959607;28;54076;-66
2023/10/26 02:43:46;;;;;;;;;7.00;6.00;;;;;16.43;100.00;99377.16;4977037;28;57294;-67
2023/10/26 02:46:11;;;;;;;;;5.33;5.33;;;;;16.43;100.00;99374.47;4977213;28;45575;-66
2023/10/26 02:48:37;;;;;;;;;6.00;6.00;;;;;16.44;100.00;99362.88;4977059;28;45379;-66
2023/10/26 02:51:03;;;;;;;;;4.67;4.67;;;;;16.49;100.00;99368.91;4960324;28;45193;-66
2023/10/26 02:53:28;;;;;;;;;6.00;6.00;;;;;16.47;100.00;99359.25;4960108;28;45363;-67
2023/10/26 02:55:54;;;;;;;;;6.00;5.00;;;;;16.46;100.00;99352.19;4977036;28;47083;-66
2023/10/26 02:58:19;;;;;;;;;7.00;6.00;;;;;16.49;100.00;99350.28;4976283;28;63183;-66
2023/10/26 03:00:44;;;;;;;;;6.00;5.00;;;;;16.51;100.00;99350.22;4977973;28;52034;-68
2023/10/26 03:03:09;;;;;;;;;5.00;5.00;;;;;16.46;100.00;99344.22;4977192;28;49407;-66
2023/10/26 03:05:35;;;;;;;;;4.00;4.00;;;;;16.47;100.00;99329.97;4976255;28;65380;-66
2023/10/26 03:08:01;;;;;;;;;5.00;4.00;;;;;16.44;100.00;99333.59;4976560;28;45526;-66
2023/10/26 03:10:27;;;;;;;;;5.00;5.00;;;;;16.44;100.00;99322.06;4976276;28;53935;-67
2023/10/26 03:12:52;;;;;;;;;4.00;4.00;;;;;16.44;100.00;99312.28;4982091;28;45586;-67
2023/10/26 03:15:18;;;;;;;;;4.00;4.00;;;;;16.49;100.00;99317.44;4958275;28;65499;-68
2023/10/26 03:17:44;;;;;;;;;5.00;4.00;;;;;16.46;100.00;99317.56;4976450;28;45695;-67
2023/10/26 03:20:10;;;;;;;;;3.00;3.00;;;;;16.47;100.00;99308.66;4977207;28;45471;-66
2023/10/26 03:22:35;;;;;;;;;4.00;4.00;;;;;16.51;100.00;99312.91;4976622;28;45253;-66
2023/10/26 03:25:01;;;;;;;;;3.67;3.00;;;;;16.48;100.00;99313.91;4975943;28;58345;-67
2023/10/26 03:27:26;;;;;;;;;3.67;3.67;;;;;16.52;100.00;99316.47;4974742;28;47330;-65
2023/10/26 03:29:52;;;;;;;;;4.00;3.00;;;;;16.49;100.00;99302.31;4976152;28;57402;-67
2023/10/26 03:32:18;;;;;;;;;5.67;4.00;;;;;16.50;100.00;99289.84;4976840;28;45610;-67
2023/10/26 03:34:43;;;;;;;;;4.33;4.33;;;;;16.48;100.00;99300.59;4976383;28;45451;-67
2023/10/26 03:37:08;;;;;;;;;5.00;5.00;;;;;16.50;100.00;99295.19;4976557;28;45477;-66
2023/10/26 03:39:34;;;;;;;;;3.67;3.00;;;;;16.49;100.00;99296.13;4974817;28;57426;-67
2023/10/26 03:42:00;;;;;;;;;4.00;4.00;;;;;16.48;100.00;99295.25;4976979;28;45462;-66
2023/10/26 03:44:25;;;;;;;;;3.00;3.00;;;;;16.50;100.00;99296.06;4976586;28;46729;-65
2023/10/26 03:46:52;;;;;;;;;3.00;3.00;;;;;16.52;100.00;99292.50;4959137;28;45330;-67
2023/10/26 03:49:18;;;;;;;;;4.00;4.00;;;;;16.46;100.00;99293.59;4955661;28;45522;-65
2023/10/26 03:51:43;;;;;;;;;5.33;4.33;;;;;16.45;100.00;99297.16;4973913;28;45586;-66
2023/10/26 03:54:08;;;;;;;;;5.00;4.00;;;;;16.48;100.00;99299.72;4970045;28;64028;-67
2023/10/26 03:56:34;;;;;;;;;7.00;5.67;;;;;16.53;100.00;99287.09;4975420;28;62535;-67
2023/10/26 03:58:59;;;;;;;;;6.00;6.00;;;;;16.51;100.00;99286.25;4976248;28;54690;-68
2023/10/26 04:01:24;;;;;;;;;8.00;7.00;;;;;16.55;100.00;99285.22;4975880;28;59615;-66
2023/10/26 04:03:50;;;;;;;;;10.33;9.00;;;;;16.57;100.00;99274.53;4958134;28;65797;-65
2023/10/26 04:06:15;;;;;;;;;8.00;8.00;;;;;16.55;100.00;99261.25;4975807;28;54914;-67
2023/10/26 04:08:40;;;;;;;;;8.67;8.67;;;;;16.53;100.00;99271.09;4975552;28;61298;-67
2023/10/26 04:11:06;;;;;;;;;8.33;6.00;;;;;16.56;100.00;99281.63;4976587;28;45566;-67
2023/10/26 04:13:31;;;;;;;;;7.33;6.00;;;;;16.58;100.00;99279.78;4978790;28;45971;-66
2023/10/26 04:16:00;;;;;;;;;5.67;5.00;;;;;16.59;100.00;99278.84;4976441;28;45304;-66
2023/10/26 04:18:26;;;;;;;;;5.00;5.00;;;;;16.61;100.00;99277.00;4975911;28;45550;-67
2023/10/26 04:20:51;;;;;;;;;6.00;6.00;;;;;16.63;100.00;99275.16;4976027;28;51967;-66
2023/10/26 04:23:16;;;;;;;;;3.67;3.67;;;;;16.64;100.00;99271.56;4975377;28;63970;-66
2023/10/26 04:25:41;;;;;;;;;6.67;5.00;;;;;16.63;100.00;99269.81;4975225;28;59443;-66
2023/10/26 04:28:07;;;;;;;;;6.00;5.00;;;;;16.64;100.00;99265.34;4975013;28;59554;-67
2023/10/26 04:30:32;;;;;;;;;4.00;4.00;;;;;16.65;100.00;99265.28;4975688;28;45308;-67
2023/10/26 04:32:58;;;;;;;;;4.00;4.00;;;;;16.67;100.00;99268.78;4957569;28;66541;-67
2023/10/26 04:35:23;;;;;;;;;4.00;4.00;;;;;16.66;100.00;99267.03;4975550;28;60176;-68
2023/10/26 04:37:49;;;;;;;;;4.00;4.00;;;;;16.70;100.00;99255.31;4976154;28;45514;-66
2023/10/26 04:40:15;;;;;;;;;4.00;4.00;;;;;16.71;100.00;99261.56;4978593;28;45603;-66
2023/10/26 04:42:40;;;;;;;;;5.33;4.00;;;;;16.74;100.00;99259.66;4978976;28;45630;-66
2023/10/26 04:45:06;;;;;;;;;4.00;4.00;;;;;16.74;100.00;99259.66;4978982;28;45447;-65
2023/10/26 04:47:31;;;;;;;;;6.00;5.00;;;;;16.77;100.00;99253.31;4979375;28;45558;-65
2023/10/26 04:49:57;;;;;;;;;5.00;5.00;;;;;16.75;100.00;99258.72;4979314;28;45271;-66
2023/10/26 04:52:22;;;;;;;;;4.00;4.00;;;;;16.78;100.00;99255.06;4978983;28;46236;-66
2023/10/26 04:54:47;;;;;;;;;7.67;5.00;;;;;16.79;100.00;99253.28;4978058;28;61214;-66
2023/10/26 04:57:13;;;;;;;;;6.00;6.00;;;;;16.80;100.00;99252.34;4978806;28;56121;-67
2023/10/26 04:59:38;;;;;;;;;5.67;5.67;;;;;16.82;100.00;99259.31;4978521;28;55387;-65
2023/10/26 05:02:03;;;;;;;;;7.00;6.00;;;;;16.83;100.00;99250.44;4978556;28;61301;-66
2023/10/26 05:04:29;;;;;;;;;5.33;5.33;;;;;16.83;100.00;99253.09;4961371;28;45257;-67
2023/10/26 05:06:54;;;;;;;;;5.00;5.00;;;;;16.85;100.00;99234.34;4978526;28;57814;-66
2023/10/26 05:09:20;;;;;;;;;5.00;5.00;;;;;16.85;100.00;99232.56;4979109;28;46035;-67
2023/10/26 05:11:46;;;;;;;;;4.00;4.00;;;;;16.85;100.00;99229.91;4978208;28;64478;-65
2023/10/26 05:14:11;;;;;;;;;4.00;4.00;;;;;16.82;100.00;99216.69;4978530;28;45423;-66
2023/10/26 05:16:37;;;;;;;;;5.00;4.00;;;;;16.85;100.00;99221.91;4978202;28;56949;-67
2023/10/26 05:19:02;;;;;;;;;3.33;3.00;;;;;16.88;100.00;99218.22;4978788;28;45470;-66
2023/10/26 05:21:28;;;;;;;;;3.00;3.00;;;;;16.86;100.00;99210.28;4980214;28;46762;-68
2023/10/26 05:23:53;;;;;;;;;3.67;3.67;;;;;16.87;100.00;99216.50;4961436;28;45501;-67
2023/10/26 05:26:18;;;;;;;;;4.00;4.00;;;;;16.89;100.00;99209.31;4970599;28;59154;-67
2023/10/26 05:28:46;;;;;;;;;4.00;4.00;;;;;16.88;100.00;99210.22;4976555;28;59402;-66
2023/10/26 05:31:11;;;;;;;;;4.00;4.00;;;;;16.94;100.00;99212.66;4978230;28;46779;-65
2023/10/26 05:33:36;;;;;;;;;3.00;3.00;;;;;16.91;100.00;99213.66;4959983;28;64417;-66
2023/10/26 05:36:02;;;;;;;;;4.00;4.00;;;;;16.93;100.00;99203.78;4979116;28;45624;-68
2023/10/26 05:38:27;;;;;;;;;3.67;3.67;;;;;16.95;100.00;99206.41;4978300;28;45621;-66
2023/10/26 05:40:55;;;;;;;;;2.33;2.33;;;;;16.95;100.00;99203.72;4981846;28;46273;-66
2023/10/26 05:43:20;;;;;;;;;3.00;3.00;;;;;16.96;100.00;99213.47;4977422;28;45476;-66
2023/10/26 05:45:46;;;;;;;;;3.00;2.00;;;;;16.94;100.00;99210.88;4978000;28;45683;-68
2023/10/26 05:48:11;;;;;;;;;2.00;2.00;;;;;16.95;100.00;99203.72;4977067;28;57608;-68
2023/10/26 05:50:41;;;;;;;;;1.00;1.00;;;;;17.01;100.00;99216.81;4976341;28;67055;-68
2023/10/26 05:53:07;;;;;;;;;0.33;0.33;;;;;17.01;100.00;99220.34;4977906;28;45360;-68
2023/10/26 05:55:33;;;;;;;;;1.00;1.00;;;;;17.08;100.00;99225.41;4978306;28;45455;-67
2023/10/26 05:57:58;;;;;;;;;0.00;0.00;;;;;17.04;100.00;99222.00;4977490;28;45549;-67
2023/10/26 06:00:25;;;;;;;;;0.00;0.00;;;;;17.03;100.00;99231.78;4959157;28;68821;-67
2023/10/26 06:02:51;;;;;;;;;0.33;0.33;;;;;17.01;100.00;99239.00;4977910;28;45365;-67
2023/10/26 06:05:16;;;;;;;;;1.00;1.00;;;;;17.00;100.00;99242.59;4976588;28;45586;-67
2023/10/26 06:07:42;;;;;;;;;0.00;0.00;;;;;17.01;100.00;99255.00;4977348;28;56353;-67
2023/10/26 06:10:09;;;;;;;;;0.00;0.00;;;;;16.97;100.00;99252.53;4977011;28;46276;-67
2023/10/26 06:12:35;;;;;;;;;0.00;0.00;;;;;16.94;100.00;99250.00;4960713;28;45536;-66
2023/10/26 06:15:00;;;;;;;;;0.00;0.00;;;;;16.91;100.00;99276.75;4960121;28;45533;-67
2023/10/26 06:17:26;;;;;;;;;0.67;0.33;;;;;16.90;100.00;99270.56;4976885;28;56988;-66
2023/10/26 06:19:51;;;;;;;;;1.33;0.00;;;;;16.88;100.00;99271.53;4977585;28;46581;-67
2023/10/26 06:22:16;;;;;;;;;1.00;1.00;;;;;16.86;100.00;99270.75;4977353;28;45574;-67
2023/10/26 06:24:42;;;;;;;;;2.33;0.33;;;;;16.80;100.00;99266.53;4973758;28;57403;-68
2023/10/26 06:27:08;;;;;;;;;1.00;1.00;;;;;16.79;100.00;99261.28;4971391;28;45429;-66
2023/10/26 06:31:58;;;;;;;;;2.00;0.00;;;;;16.75;100.00;99264.03;5537294;22;72007;-67
2023/10/26 06:34:25;;;;;;;;;0.00;0.00;;;;;16.75;100.00;99261.38;4978090;28;56890;-65
2023/10/26 06:37:10;;;;;;;;;4.00;2.00;;;;;16.76;100.00;99272.91;4975711;28;45532;-65
2023/10/26 06:39:36;;;;;;;;;2.00;0.00;;;;;16.79;100.00;99279.94;4972340;28;45995;-66
2023/10/26 06:42:01;;;;;;;;;3.67;1.00;;;;;16.82;100.00;99274.44;4974994;28;60762;-67
2023/10/26 06:44:26;;;;;;;;;2.00;1.00;;;;;16.80;100.00;99271.00;4976062;28;45501;-66
2023/10/26 06:46:52;;;;;;;;;0.67;0.67;;;;;16.77;100.00;99282.63;4976175;28;56771;-67
2023/10/26 06:49:17;;;;;;;;;3.67;0.33;;;;;16.81;100.00;99283.38;4975531;28;46736;-67
2023/10/26 06:51:42;;;;;;;;;2.00;1.00;;;;;16.86;100.00;99289.41;4972971;28;67044;-67
2023/10/26 06:54:09;;;;;;;;;5.00;1.00;;;;;16.87;100.00;99294.66;4968196;28;51115;-65
2023/10/26 06:56:36;;;;;;;;;1.33;1.33;;;;;16.83;100.00;99293.09;4970883;28;45557;-65
2023/10/26 06:59:02;;;;;;;;;2.00;0.00;;;;;16.81;100.00;99299.38;4969634;28;45896;-65
2023/10/26 07:01:27;;;;;;;;;4.33;1.33;;;;;16.84;100.00;99309.94;4967875;28;45548;-66
2023/10/26 07:03:53;;;;;;;;;3.67;1.33;;;;;16.86;100.00;99310.72;4974530;28;45882;-66
2023/10/26 07:06:18;;;;;;;;;3.00;2.00;;;;;16.86;100.00;99308.94;4975314;28;45515;-65
2023/10/26 07:08:44;;;;;;;;;5.33;3.00;;;;;16.91;100.00;99311.44;4973927;28;46855;-65
2023/10/26 07:11:09;;;;;;;;;6.00;1.00;;;;;16.90;100.00;99317.69;4970808;28;45428;-66
2023/10/26 07:13:35;;;;;;;;;5.33;2.00;;;;;16.90;100.00;99318.56;4972176;28;45705;-65
2023/10/26 07:16:01;;;;;;;;;5.67;2.00;;;;;16.87;100.00;99328.47;4974272;28;45461;-68
2023/10/26 07:18:27;;;;;;;;;4.33;2.00;;;;;16.82;100.00;99325.09;4978616;28;45854;-67
2023/10/26 07:20:53;;;;;;;;;6.67;2.00;;;;;16.84;100.00;99331.28;4966062;28;45481;-66
2023/10/26 07:23:18;;;;;;;;;7.00;2.00;;;;;16.82;100.00;99347.28;4963258;28;45501;-67
2023/10/26 07:25:44;;;;;;;;;5.33;1.33;;;;;16.83;100.00;99354.41;4977400;28;45704;-68
2023/10/26 07:28:09;;;;;;;;;4.00;2.33;;;;;16.86;100.00;99345.41;4961981;28;45683;-64
2023/10/26 07:30:39;;;;;;;;;4.00;2.00;;;;;16.85;100.00;99344.53;4967138;28;45562;-69
2023/10/26 07:33:05;;;;;;;;;5.67;3.00;;;;;16.83;100.00;99353.50;4959313;28;45165;-67
2023/10/26 07:35:30;;;;;;;;;5.00;2.00;;;;;16.83;100.00;99359.72;4971810;28;45534;-67
2023/10/26 07:37:55;;;;;;;;;6.00;2.67;;;;;16.85;100.00;99365.84;4957995;28;62995;-66
2023/10/26 07:40:20;;;;;;;;;8.00;1.00;;;;;16.87;100.00;99360.47;4967826;28;62323;-68
2023/10/26 07:42:46;;;;;;;;;4.33;2.00;;;;;16.89;100.00;99350.63;4972775;28;54852;-68
2023/10/26 07:45:12;;;;;;;;;2.67;1.33;;;;;16.89;100.00;99369.28;4965405;28;45650;-66
2023/10/26 07:47:37;;;;;;;;;7.00;2.33;;;;;16.84;100.00;99369.44;4972726;28;46197;-68
2023/10/26 07:50:03;;;;;;;;;4.33;1.67;;;;;16.84;100.00;99380.13;4975547;28;66775;-66
2023/10/26 07:52:29;;;;;;;;;5.00;2.00;;;;;16.83;100.00;99386.38;4974927;28;45482;-66
2023/10/26 07:54:54;;;;;;;;;4.00;1.00;;;;;16.85;100.00;99396.97;4975015;28;45393;-69
2023/10/26 07:57:20;;;;;;;;;5.67;1.33;;;;;16.87;100.00;99387.13;4974378;28;45896;-68
2023/10/26 07:59:45;;;;;;;;;4.67;1.67;;;;;16.87;100.00;99384.44;4973859;28;45553;-68
2023/10/26 08:02:11;;;;;;;;;2.67;1.00;;;;;16.86;100.00;99382.72;4967768;28;56804;-67
2023/10/26 08:04:36;;;;;;;;;6.00;2.33;;;;;16.98;100.00;99393.78;4972903;28;58576;-66
2023/10/26 08:07:01;;;;;;;;;8.33;1.00;;;;;16.94;100.00;99386.84;4970344;28;63749;-66
2023/10/26 08:09:31;;;;;;;;;7.00;1.00;;;;;16.91;100.00;99384.28;4974781;28;45862;-66
2023/10/26 08:11:57;;;;;;;;;4.00;2.00;;;;;16.90;100.00;99390.53;4969497;28;45576;-66
2023/10/26 08:14:23;;;;;;;;;3.67;2.33;;;;;16.93;100.00;99394.88;4975806;28;46119;-66
2023/10/26 08:16:49;;;;;;;;;2.00;2.00;;;;;16.98;100.00;99407.09;4973685;28;45815;-68
2023/10/26 08:19:14;;;;;;;;;2.00;2.00;;;;;16.94;100.00;99394.84;4972748;28;62355;-66
2023/10/26 08:21:40;;;;;;;;;2.00;2.00;;;;;16.95;100.00;99422.38;4977531;28;56478;-66
2023/10/26 08:24:05;;;;;;;;;9.00;2.00;;;;;16.94;100.00;99420.63;4975700;28;45501;-68
2023/10/26 08:26:31;;;;;;;;;4.33;2.00;;;;;16.98;100.00;99419.56;4976816;28;46388;-67
2023/10/26 08:28:56;;;;;;;;;4.33;1.33;;;;;16.99;100.00;99406.19;4982069;28;65431;-66
2023/10/26 08:31:22;;;;;;;;;3.33;3.33;;;;;17.00;100.00;99418.59;4971293;28;61388;-67
2023/10/26 08:33:47;;;;;;;;;8.67;2.00;;;;;17.03;100.00;99409.59;4976265;28;56313;-66
2023/10/26 08:36:13;;;;;;;;;9.00;3.00;;;;;17.03;100.00;99406.94;4978247;28;46433;-67
2023/10/26 08:38:38;;;;;;;;;4.67;2.33;;;;;17.03;100.00;99410.47;4973553;28;45590;-67
2023/10/26 08:41:04;;;;;;;;;6.00;3.00;;;;;17.08;100.00;99415.63;4972542;28;48146;-68
2023/10/26 08:43:31;;;;;;;;;5.00;2.00;;;;;17.06;100.00;99401.50;4981500;28;45342;-66
2023/10/26 08:45:59;;;;;;;;;7.00;3.00;;;;;17.08;100.00;99404.97;4977569;28;46063;-67
2023/10/26 08:48:25;;;;;;;;;10.00;3.67;;;;;17.07;100.00;99413.91;4971874;28;45459;-68
2023/10/26 08:50:51;;;;;;;;;9.67;1.00;;;;;17.11;100.00;99412.84;4979867;28;45425;-66
2023/10/26 08:53:16;;;;;;;;;6.33;1.00;;;;;17.16;100.00;99407.34;4972187;28;50288;-66
2023/10/26 08:55:43;;;;;;;;;4.67;2.00;;;;;17.18;100.00;99421.50;4977155;28;46555;-68
2023/10/26 08:58:09;;;;;;;;;5.00;1.00;;;;;17.17;100.00;99420.63;4977906;28;45360;-65
2023/10/26 09:00:41;;;;;;;;;4.33;1.00;;;;;17.16;100.00;99420.69;4976256;28;51700;-66
2023/10/26 09:03:07;;;;;;;;;5.67;2.00;;;;;17.21;100.00;99437.38;4977904;28;45537;-65
2023/10/26 09:05:32;;;;;;;;;5.67;1.67;;;;;17.28;100.00;99438.88;4978220;28;46292;-67
2023/10/26 09:07:57;;;;;;;;;6.67;3.00;;;;;17.29;100.00;99437.94;4977169;28;45517;-66
2023/10/26 09:10:31;;;;;;;;;3.67;0.33;;;;;17.32;100.00;99435.16;4977941;28;45485;-65
2023/10/26 09:13:03;;;;;;;;;1.33;0.33;;;;;17.39;100.00;99425.13;4983084;28;45386;-66
2023/10/26 09:15:28;;;;;;;;;2.67;1.00;;;;;17.37;100.00;99430.53;4977701;28;46629;-65
2023/10/26 09:17:57;;;;;;;;;6.00;2.00;;;;;17.38;100.00;99426.91;4976258;28;45514;-68
2023/10/26 09:20:23;;;;;;;;;1.00;1.00;;;;;17.39;100.00;99425.13;4976863;28;45608;-67
2023/10/26 09:22:48;;;;;;;;;6.67;2.33;;;;;17.44;100.00;99441.81;4977532;28;45684;-68
2023/10/26 09:25:14;;;;;;;;;4.00;1.33;;;;;17.46;100.00;99445.28;4979024;28;73286;-67
2023/10/26 09:27:41;;;;;;;;;1.00;1.00;;;;;17.43;100.00;99448.97;4977425;28;45804;-66
2023/10/26 09:30:23;;;;;;;;;4.00;1.00;;;;;17.41;100.00;99439.25;4973048;28;45600;-65
2023/10/26 09:32:48;;;;;;;;;7.33;2.67;;;;;17.42;100.00;99439.22;4971569;28;45615;-65
2023/10/26 09:35:33;;;;;;;;;3.67;2.00;;;;;17.44;100.00;99445.34;4975201;28;73776;-66
2023/10/26 09:37:58;;;;;;;;;4.00;2.00;;;;;17.50;100.00;99438.91;4975081;28;45610;-68
2023/10/26 09:40:26;;;;;;;;;7.00;2.00;;;;;17.52;100.00;99451.28;4976870;28;45440;-67
2023/10/26 09:42:51;;;;;;;;;2.67;1.00;;;;;17.54;100.00;99465.41;4967790;28;45459;-65
2023/10/26 09:45:18;;;;;;;;;8.00;3.00;;;;;17.58;100.00;99454.59;4976060;28;45615;-66
2023/10/26 09:47:45;;;;;;;;;6.67;4.00;;;;;17.61;100.00;99462.50;4979899;28;45550;-65
2023/10/26 09:50:10;;;;;;;;;3.00;2.00;;;;;17.66;100.00;99458.72;4977126;28;45558;-66
2023/10/26 09:52:39;;;;;;;;;5.00;2.00;;;;;17.73;100.00;99457.56;4977414;28;46005;-68
2023/10/26 09:55:06;;;;;;;;;3.00;0.00;;;;;17.75;100.00;99442.38;4975280;28;45375;-66
2023/10/26 09:57:39;;;;;;;;;1.00;1.00;;;;;17.75;100.00;99429.00;4976953;28;45489;-67
2023/10/26 10:00:10;;;;;;;;;4.67;2.00;;;;;17.82;100.00;99420.75;4973431;28;45508;-66
2023/10/26 10:02:35;;;;;;;;;4.33;2.00;;;;;17.89;100.00;99424.91;4971110;28;45572;-65
2023/10/26 10:05:01;;;;;;;;;3.33;1.33;;;;;17.95;100.00;99416.63;4970869;28;73839;-66
2023/10/26 10:07:42;;;;;;;;;6.67;5.00;;;;;17.97;100.00;99412.09;4970337;28;51670;-66
2023/10/26 10:10:09;;;;;;;;;6.00;3.00;;;;;17.97;100.00;99409.44;4975127;28;45457;-68
2023/10/26 10:12:35;;;;;;;;;6.00;2.00;;;;;18.00;100.00;99411.97;4977424;28;45370;-68
2023/10/26 10:15:09;;;;;;;;;4.00;2.00;;;;;18.03;100.00;99403.84;4976978;28;45936;-66
2023/10/26 10:17:44;;;;;;;;;3.33;1.00;;;;;18.08;100.00;99408.97;4976882;28;45530;-66
2023/10/26 10:20:18;;;;;;;;;3.33;2.00;;;;;18.12;100.00;99414.13;4976722;28;45363;-66
2023/10/26 10:22:47;;;;;;;;;3.00;2.67;;;;;18.12;100.00;99426.63;4972042;28;45605;-66
2023/10/26 10:25:14;;;;;;;;;4.00;2.00;;;;;18.14;100.00;99430.97;4970749;28;46575;-66
2023/10/26 10:27:41;;;;;;;;;7.67;2.00;;;;;18.18;100.00;99442.38;4967159;28;45559;-67
2023/10/26 10:30:11;;;;;;;;;7.00;2.33;;;;;18.29;100.00;99435.66;4967250;28;45585;-66
2023/10/26 10:32:46;;;;;;;;;5.00;2.00;;;;;18.39;100.00;99446.81;4973514;28;45557;-67
2023/10/26 10:35:14;;;;;;;;;1.33;1.00;;;;;18.39;100.00;99435.25;4990280;28;47967;-66
2023/10/26 10:38:12;;;;;;;;;5.33;2.00;;;;;18.46;100.00;99432.25;4970151;28;45426;-66
2023/10/26 10:40:39;;;;;;;;;6.67;2.00;;;;;18.43;100.00;99434.16;4974728;28;45434;-66
2023/10/26 10:43:05;;;;;;;;;6.00;3.00;;;;;18.47;100.00;99433.97;4976488;28;45382;-67
2023/10/26 10:45:30;;;;;;;;;2.67;2.33;;;;;18.47;100.00;99433.09;4974640;28;45991;-65
2023/10/26 10:47:56;;;;;;;;;3.67;3.67;;;;;18.47;100.00;99438.44;4968603;28;52762;-68
2023/10/26 10:50:23;;;;;;;;;6.00;2.00;;;;;18.48;100.00;99438.41;4974924;28;45359;-65
2023/10/26 10:52:50;;;;;;;;;3.00;3.00;;;;;18.49;100.00;99434.78;4970603;28;45258;-67
2023/10/26 10:55:29;;;;;;;;;1.67;1.33;;;;;18.53;100.00;99441.72;4975630;28;46047;-66
2023/10/26 10:57:57;;;;;;;;;5.00;2.67;;;;;18.54;100.00;99430.13;4973099;28;45480;-66
2023/10/26 11:00:24;;;;;;;;;4.00;1.00;;;;;18.55;100.00;99441.69;4974717;28;45422;-66
2023/10/26 11:02:52;;;;;;;;;4.67;3.00;;;;;18.57;100.00;99421.06;4976513;28;45488;-68
2023/10/26 11:05:18;;;;;;;;;4.00;2.00;;;;;18.58;100.00;99417.47;4974492;28;45870;-69
2023/10/26 11:07:43;;;;;;;;;8.33;4.00;;;;;18.60;100.00;99426.31;4971925;28;45464;-67
2023/10/26 11:10:09;;;;;;;;;4.67;3.33;;;;;18.58;100.00;99426.34;4968837;28;65768;-67
2023/10/26 11:12:34;;;;;;;;;4.33;2.00;;;;;18.62;100.00;99427.09;4976059;28;45657;-67
2023/10/26 11:15:00;;;;;;;;;2.33;2.00;;;;;18.63;100.00;99423.47;4975743;28;46426;-65
2023/10/26 11:17:27;;;;;;;;;1.00;1.00;;;;;18.67;100.00;99427.75;4976411;28;45366;-66
2023/10/26 11:19:53;;;;;;;;;2.67;2.00;;;;;18.71;100.00;99410.69;4975660;28;45376;-68
2023/10/26 11:22:20;;;;;;;;;5.67;3.00;;;;;18.73;100.00;99405.25;4975008;28;45447;-69